Time;durP1;ratioP1;P1;durP2;ratioP2;P2;SDS_P1;SDS_P2;PMS_P1;PMS_P2;Temp;Humidity;BMP_temperature;BMP_pressure;BME280_temperature;BME280_humidity;BME280_pressure;Samples;Min_cycle;Max_cycle;Signal;HPM_P1;HPM_P2
2023/06/29 00:00:19;;;;;;;5.78;2.97;;;;;;;19.48;100.00;101410.19;6270146;28;20048;-74
2023/06/29 00:03:20;;;;;;;6.13;2.40;;;;;;;19.49;100.00;101411.91;6249385;28;20052;-74
2023/06/29 00:06:22;;;;;;;3.78;1.88;;;;;;;19.51;100.00;101402.81;6255849;28;20053;-74
2023/06/29 00:09:24;;;;;;;5.38;2.30;;;;;;;19.50;100.00;101405.59;6252113;28;20052;-74
2023/06/29 00:12:26;;;;;;;4.72;2.00;;;;;;;19.47;100.00;101403.19;6251522;28;20041;-74
2023/06/29 00:15:27;;;;;;;7.07;2.90;;;;;;;19.46;100.00;101406.81;6251591;28;20361;-74
2023/06/29 00:18:29;;;;;;;2.53;1.75;;;;;;;19.43;100.00;101394.56;6252085;28;20048;-74
2023/06/29 00:21:31;;;;;;;3.72;2.10;;;;;;;19.40;100.00;101396.66;6267421;28;20041;-73
2023/06/29 00:24:42;;;;;;;4.50;2.15;;;;;;;19.37;100.00;101396.91;6270983;28;20041;-74
2023/06/29 00:27:43;;;;;;;3.03;2.15;;;;;;;19.33;100.00;101390.94;6266596;28;20040;-74
2023/06/29 00:30:44;;;;;;;4.93;2.20;;;;;;;19.33;100.00;101395.44;6275458;28;20045;-74
2023/06/29 00:33:46;;;;;;;3.25;2.13;;;;;;;19.36;100.00;101393.38;6276108;28;20045;-74
2023/06/29 00:36:47;;;;;;;5.75;2.40;;;;;;;19.34;100.00;101397.97;6268771;28;20452;-74
2023/06/29 00:39:49;;;;;;;2.88;1.85;;;;;;;19.35;100.00;101399.69;6258725;28;20045;-74
2023/06/29 00:42:51;;;;;;;2.70;1.75;;;;;;;19.35;100.00;101394.38;6267689;28;20064;-73
2023/06/29 00:45:52;;;;;;;6.50;2.30;;;;;;;19.34;100.00;101391.78;6251142;28;20438;-74
2023/06/29 00:48:53;;;;;;;5.32;2.47;;;;;;;19.29;100.00;101383.31;6251066;28;20046;-74
2023/06/29 00:51:55;;;;;;;8.10;3.35;;;;;;;19.31;100.00;101378.75;6248859;28;20041;-74
2023/06/29 00:54:59;;;;;;;2.80;2.13;;;;;;;19.32;100.00;101381.28;6242892;28;20053;-74
2023/06/29 00:58:00;;;;;;;3.70;2.00;;;;;;;19.33;100.00;101382.13;6250808;28;20046;-74
2023/06/29 01:01:01;;;;;;;3.95;2.20;;;;;;;19.31;100.00;101376.06;6246869;28;20362;-74
2023/06/29 01:04:03;;;;;;;5.60;2.60;;;;;;;19.30;100.00;101379.69;6257700;28;20046;-74
2023/06/29 01:07:10;;;;;;;3.95;2.80;;;;;;;19.24;100.00;101376.53;6251634;28;20049;-74
2023/06/29 01:10:16;;;;;;;4.00;2.55;;;;;;;19.18;100.00;101371.72;6256588;28;20132;-74
2023/06/29 01:13:19;;;;;;;2.97;1.95;;;;;;;19.20;100.00;101371.59;6261341;28;20045;-74
2023/06/29 01:16:21;;;;;;;4.78;2.10;;;;;;;19.19;100.00;101368.06;6260029;28;20047;-74
2023/06/29 01:19:25;;;;;;;7.72;3.15;;;;;;;19.19;100.00;101372.56;6250587;28;20045;-74
2023/06/29 01:22:29;;;;;;;5.97;2.95;;;;;;;19.17;100.00;101361.19;6249673;28;20048;-74
2023/06/29 01:25:32;;;;;;;3.58;2.33;;;;;;;19.19;100.00;101365.41;6250249;28;20576;-74
2023/06/29 01:28:38;;;;;;;4.97;2.38;;;;;;;19.15;100.00;101363.97;6250282;28;20353;-74
2023/06/29 01:31:39;;;;;;;4.80;2.70;;;;;;;19.13;100.00;101363.25;6249978;28;20045;-74
2023/06/29 01:34:41;;;;;;;4.60;2.70;;;;;;;19.13;100.00;101359.72;6250267;28;20052;-74
2023/06/29 01:37:48;;;;;;;4.93;2.65;;;;;;;19.09;100.00;101356.47;6250080;28;20050;-74
2023/06/29 01:40:54;;;;;;;4.38;2.63;;;;;;;19.08;100.00;101359.25;6249655;28;20046;-74
2023/06/29 01:43:56;;;;;;;6.15;2.60;;;;;;;19.06;100.00;101342.53;6249917;28;20049;-74
2023/06/29 01:46:57;;;;;;;5.25;2.60;;;;;;;19.07;100.00;101338.88;6250175;28;20057;-74
2023/06/29 01:50:00;;;;;;;4.93;2.92;;;;;;;19.10;100.00;101346.66;6249939;28;20358;-74
2023/06/29 01:53:02;;;;;;;5.22;3.05;;;;;;;19.07;100.00;101344.22;6249562;28;20056;-74
2023/06/29 01:56:05;;;;;;;6.13;2.92;;;;;;;19.03;100.00;101338.31;6249903;28;20056;-74
2023/06/29 01:59:07;;;;;;;4.15;2.60;;;;;;;18.99;100.00;101337.69;6250088;28;20049;-74
2023/06/29 02:02:08;;;;;;;5.18;2.80;;;;;;;18.98;100.00;101338.63;6254753;28;20128;-74
2023/06/29 02:05:09;;;;;;;2.95;2.20;;;;;;;18.97;100.00;101338.78;6258437;28;20060;-74
2023/06/29 02:08:12;;;;;;;4.85;2.17;;;;;;;18.95;100.00;101335.41;6268525;28;20048;-74
2023/06/29 02:11:14;;;;;;;7.75;2.42;;;;;;;18.94;100.00;101329.22;6265715;28;20061;-74
2023/06/29 02:14:17;;;;;;;4.57;2.75;;;;;;;18.91;100.00;101337.44;6255195;28;20053;-74
2023/06/29 02:17:18;;;;;;;3.03;2.30;;;;;;;18.91;100.00;101326.78;6249766;28;20092;-74
2023/06/29 02:20:19;;;;;;;5.88;3.25;;;;;;;18.88;100.00;101324.38;6273860;28;20433;-74
2023/06/29 02:23:21;;;;;;;6.95;2.97;;;;;;;18.84;100.00;101327.41;6278301;28;20041;-73
2023/06/29 02:26:25;;;;;;;3.03;1.98;;;;;;;18.79;100.00;101326.91;6279027;28;20473;-74
2023/06/29 02:29:26;;;;;;;6.40;2.97;;;;;;;18.71;100.00;101332.81;6258222;28;20049;-74
2023/06/29 02:32:27;;;;;;;3.28;2.22;;;;;;;18.71;100.00;101330.16;6253418;28;20342;-74
2023/06/29 02:35:29;;;;;;;6.47;3.25;;;;;;;18.63;100.00;101330.75;6253884;28;20072;-74
2023/06/29 02:38:30;;;;;;;3.60;2.78;;;;;;;18.61;100.00;101330.00;6254215;28;20041;-74
2023/06/29 02:41:33;;;;;;;4.53;2.95;;;;;;;18.57;100.00;101325.03;6242189;28;20049;-74
2023/06/29 02:44:34;;;;;;;3.28;2.28;;;;;;;18.59;100.00;101331.13;6261817;28;20465;-74
2023/06/29 02:47:36;;;;;;;6.22;3.40;;;;;;;18.59;100.00;101321.31;6253901;28;20049;-74
2023/06/29 02:50:37;;;;;;;7.20;2.70;;;;;;;18.61;100.00;101327.34;6249917;28;20358;-74
2023/06/29 02:53:38;;;;;;;5.20;3.08;;;;;;;18.65;100.00;101325.31;6253711;28;20052;-74
2023/06/29 02:56:41;;;;;;;6.03;2.90;;;;;;;18.67;100.00;101326.88;6253531;28;20392;-74
2023/06/29 02:59:42;;;;;;;3.75;2.42;;;;;;;18.66;100.00;101317.19;6253650;28;20045;-74
2023/06/29 03:02:44;;;;;;;4.15;2.60;;;;;;;18.69;100.00;101322.31;6252654;28;20045;-74
2023/06/29 03:05:45;;;;;;;3.45;2.58;;;;;;;18.65;100.00;101323.47;6249419;28;20052;-74
2023/06/29 03:08:48;;;;;;;3.67;2.40;;;;;;;18.61;100.00;101326.50;6261235;28;20053;-74
2023/06/29 03:11:51;;;;;;;6.10;3.13;;;;;;;18.57;100.00;101315.25;6252498;28;20124;-74
2023/06/29 03:14:52;;;;;;;4.78;3.25;;;;;;;18.57;100.00;101319.72;6253018;28;20331;-74
2023/06/29 03:17:53;;;;;;;4.82;2.65;;;;;;;18.53;100.00;101313.81;6253016;28;20052;-74
2023/06/29 03:20:55;;;;;;;4.85;2.80;;;;;;;18.52;100.00;101323.59;6252255;28;20300;-74
2023/06/29 03:23:56;;;;;;;3.45;2.55;;;;;;;18.49;100.00;101315.84;6244634;28;20474;-74
2023/06/29 03:26:59;;;;;;;5.20;2.75;;;;;;;18.49;100.00;101313.19;6252781;28;20358;-74
2023/06/29 03:30:00;;;;;;;7.22;3.80;;;;;;;18.47;100.00;101311.59;6252317;28;20065;-74
2023/06/29 03:33:01;;;;;;;5.38;3.25;;;;;;;18.47;100.00;101312.44;6252365;28;20042;-74
2023/06/29 03:36:04;;;;;;;4.47;3.00;;;;;;;18.46;100.00;101307.25;6252917;28;20060;-73
2023/06/29 03:39:06;;;;;;;8.50;4.55;;;;;;;18.45;100.00;101306.41;6252466;28;20389;-74
2023/06/29 03:42:08;;;;;;;5.82;3.17;;;;;;;18.45;100.00;101308.22;6233703;28;20041;-75
2023/06/29 03:45:10;;;;;;;8.75;3.50;;;;;;;18.44;100.00;101302.06;6232119;28;20461;-74
2023/06/29 03:48:11;;;;;;;5.63;4.05;;;;;;;18.43;100.00;101302.16;6230222;28;20057;-74
2023/06/29 03:51:13;;;;;;;4.88;3.47;;;;;;;18.46;100.00;101296.59;6240934;28;20037;-74
2023/06/29 03:54:14;;;;;;;6.28;4.43;;;;;;;18.44;100.00;101302.06;6230454;28;20060;-74
2023/06/29 03:57:17;;;;;;;6.85;3.33;;;;;;;18.44;100.00;101295.88;6229693;28;20045;-74
2023/06/29 04:00:18;;;;;;;4.63;3.10;;;;;;;18.45;100.00;101306.41;6234190;28;20076;-74
2023/06/29 04:03:20;;;;;;;8.15;3.95;;;;;;;18.46;100.00;101307.25;6236000;28;20041;-74
2023/06/29 04:06:21;;;;;;;8.13;3.78;;;;;;;18.45;100.00;101302.91;6257185;28;20167;-74
2023/06/29 04:09:22;;;;;;;8.50;3.72;;;;;;;18.44;100.00;101299.41;6255393;28;20041;-74
2023/06/29 04:12:25;;;;;;;13.93;5.10;;;;;;;18.41;100.00;101298.78;6254681;28;20041;-74
2023/06/29 04:15:26;;;;;;;7.65;4.60;;;;;;;18.43;100.00;101296.84;6250276;28;20043;-74
2023/06/29 04:18:28;;;;;;;6.28;4.07;;;;;;;18.47;100.00;101285.84;6245424;28;20047;-74
2023/06/29 04:21:29;;;;;;;6.50;4.43;;;;;;;18.48;100.00;101292.84;6248232;28;20045;-74
2023/06/29 04:24:30;;;;;;;7.38;4.45;;;;;;;18.50;100.00;101296.25;6252233;28;20044;-74
2023/06/29 04:27:34;;;;;;;5.28;4.05;;;;;;;18.49;100.00;101283.91;6254680;28;20540;-74
2023/06/29 04:30:36;;;;;;;7.10;4.60;;;;;;;18.51;100.00;101297.94;6254776;28;20607;-74
2023/06/29 04:33:38;;;;;;;7.53;4.63;;;;;;;18.54;100.00;101288.03;6253483;28;20195;-74
2023/06/29 04:36:39;;;;;;;7.65;5.25;;;;;;;18.55;100.00;101289.72;6254398;28;20043;-74
2023/06/29 04:39:40;;;;;;;9.02;5.30;;;;;;;18.58;100.00;101282.34;6249169;28;20037;-73
2023/06/29 04:42:45;;;;;;;5.82;3.92;;;;;;;18.59;100.00;101281.38;6263761;28;20342;-74
2023/06/29 04:45:46;;;;;;;7.03;4.35;;;;;;;18.61;100.00;101282.09;6275711;28;20377;-73
2023/06/29 04:48:47;;;;;;;9.18;5.60;;;;;;;18.57;100.00;101288.63;6275927;28;20122;-74
2023/06/29 04:51:49;;;;;;;11.15;6.05;;;;;;;18.59;100.00;101283.19;6275560;28;20052;-74
2023/06/29 04:54:50;;;;;;;11.85;6.03;;;;;;;18.56;100.00;101286.94;6275856;28;20051;-74
2023/06/29 04:57:53;;;;;;;11.68;6.50;;;;;;;18.57;100.00;101279.78;6264527;28;20049;-74
2023/06/29 05:00:55;;;;;;;9.55;5.78;;;;;;;18.59;100.00;101277.88;6266394;28;20060;-74
2023/06/29 05:03:56;;;;;;;15.98;5.72;;;;;;;18.60;100.00;101282.22;6275245;28;20199;-74
2023/06/29 05:06:57;;;;;;;11.05;6.25;;;;;;;18.63;100.00;101282.84;6242616;28;20353;-74
2023/06/29 05:09:59;;;;;;;12.85;4.25;;;;;;;18.65;100.00;101286.22;6250482;28;20045;-74
2023/06/29 05:13:01;;;;;;;12.15;5.47;;;;;;;18.67;100.00;101281.63;6250177;28;20053;-74
2023/06/29 05:16:03;;;;;;;12.40;5.57;;;;;;;18.71;100.00;101283.13;6250900;28;20045;-74
2023/06/29 05:19:04;;;;;;;8.30;4.47;;;;;;;18.72;100.00;101282.13;6275286;28;20048;-74
2023/06/29 05:22:06;;;;;;;7.85;4.82;;;;;;;18.75;100.00;101275.72;6256600;28;20091;-74
2023/06/29 05:25:08;;;;;;;14.70;5.32;;;;;;;18.75;100.00;101273.03;6250077;28;20346;-74
2023/06/29 05:28:11;;;;;;;9.00;5.72;;;;;;;18.80;100.00;101257.53;6250251;28;20057;-74
2023/06/29 05:31:12;;;;;;;10.30;4.85;;;;;;;18.82;100.00;101257.44;6249528;28;20354;-74
2023/06/29 05:34:14;;;;;;;8.88;5.65;;;;;;;18.82;100.00;101260.94;6260955;28;20049;-74
2023/06/29 05:37:15;;;;;;;12.13;5.88;;;;;;;18.85;100.00;101251.84;6274776;28;20055;-74
2023/06/29 05:40:17;;;;;;;9.05;6.32;;;;;;;18.82;100.00;101260.09;6274965;28;20052;-74
2023/06/29 05:43:19;;;;;;;11.50;6.03;;;;;;;18.84;100.00;101258.16;6254598;28;20057;-74
2023/06/29 05:46:21;;;;;;;13.00;6.13;;;;;;;18.78;100.00;101259.50;6270004;28;20361;-74
2023/06/29 05:49:22;;;;;;;13.48;7.38;;;;;;;18.80;100.00;101259.38;6254862;28;20540;-73
2023/06/29 05:52:24;;;;;;;9.60;6.07;;;;;;;18.81;100.00;101258.41;6250894;28;20056;-74
2023/06/29 05:55:25;;;;;;;8.13;3.85;;;;;;;18.86;100.00;101258.91;6275329;28;20377;-73
2023/06/29 05:58:28;;;;;;;12.35;6.97;;;;;;;18.87;100.00;101263.25;6275512;28;20045;-73
2023/06/29 06:01:29;;;;;;;14.00;5.80;;;;;;;18.92;100.00;101261.91;6254276;28;20056;-74
2023/06/29 06:04:30;;;;;;;12.85;6.40;;;;;;;18.93;100.00;101262.75;6275832;28;20053;-74
2023/06/29 06:07:32;;;;;;;12.85;6.18;;;;;;;18.94;100.00;101262.63;6279617;28;20049;-73
2023/06/29 06:10:33;;;;;;;7.60;4.43;;;;;;;18.96;100.00;101266.00;6279291;28;20037;-73
2023/06/29 06:13:36;;;;;;;9.40;4.88;;;;;;;19.00;100.00;101263.94;6265269;28;20048;-73
2023/06/29 06:16:37;;;;;;;10.43;5.90;;;;;;;18.98;100.00;101266.72;6248122;28;20378;-74
2023/06/29 06:19:38;;;;;;;7.53;4.55;;;;;;;18.98;100.00;101264.06;6257839;28;20437;-74
2023/06/29 06:22:40;;;;;;;10.18;5.63;;;;;;;19.06;100.00;101267.94;6278416;28;20037;-74
2023/06/29 06:25:41;;;;;;;11.82;6.88;;;;;;;19.08;100.00;101255.34;6256617;28;20089;-74
2023/06/29 06:28:44;;;;;;;11.35;5.63;;;;;;;19.09;100.00;101259.69;6240779;28;20057;-73
2023/06/29 06:31:45;;;;;;;12.48;5.50;;;;;;;19.10;100.00;101261.38;6264323;28;20187;-74
2023/06/29 06:34:48;;;;;;;17.88;6.45;;;;;;;19.13;100.00;101258.50;6261678;28;20049;-73
2023/06/29 06:37:49;;;;;;;11.07;5.90;;;;;;;19.15;100.00;101253.88;6253976;28;20045;-74
2023/06/29 06:40:51;;;;;;;5.85;3.60;;;;;;;19.17;100.00;101252.78;6253439;28;20053;-74
2023/06/29 06:43:54;;;;;;;10.43;4.03;;;;;;;19.22;100.00;101249.75;6253622;28;20041;-73
2023/06/29 06:46:55;;;;;;;7.35;4.13;;;;;;;19.25;100.00;101247.66;6253753;28;20393;-73
2023/06/29 06:49:56;;;;;;;7.75;4.45;;;;;;;19.30;100.00;101255.25;6253977;28;20057;-74
2023/06/29 06:52:58;;;;;;;6.43;4.20;;;;;;;19.33;100.00;101259.50;6245372;28;20052;-74
2023/06/29 06:56:00;;;;;;;11.13;6.55;;;;;;;19.30;100.00;101252.59;6253457;28;20057;-74
2023/06/29 06:59:02;;;;;;;9.30;5.82;;;;;;;19.34;100.00;101253.19;6253838;28;20081;-73
2023/06/29 07:02:05;;;;;;;9.35;5.30;;;;;;;19.34;100.00;101254.03;6252758;28;20046;-73
2023/06/29 07:05:07;;;;;;;14.52;6.63;;;;;;;19.38;100.00;101255.50;6270419;28;20052;-74
2023/06/29 07:08:08;;;;;;;12.82;6.63;;;;;;;19.37;100.00;101258.28;6278110;28;20052;-74
2023/06/29 07:11:10;;;;;;;8.45;4.65;;;;;;;19.38;100.00;101255.50;6269546;28;20060;-73
2023/06/29 07:14:14;;;;;;;12.43;6.10;;;;;;;19.42;100.00;101256.94;6253111;28;20045;-74
2023/06/29 07:17:16;;;;;;;12.32;5.63;;;;;;;19.46;100.00;101252.19;6277785;28;20056;-73
2023/06/29 07:20:17;;;;;;;9.07;4.50;;;;;;;19.54;100.00;101248.91;6266818;28;20056;-74
2023/06/29 07:23:18;;;;;;;8.45;4.68;;;;;;;19.57;100.00;101236.16;6257567;28;20069;-74
2023/06/29 07:26:20;;;;;;;15.10;6.05;;;;;;;19.56;100.00;101234.47;6252979;28;20049;-73
2023/06/29 07:29:23;;;;;;;8.50;4.95;;;;;;;19.63;100.00;101235.69;6252790;28;20055;-74
2023/06/29 07:32:24;;;;;;;12.85;6.35;;;;;;;19.65;100.00;101239.06;6252281;28;20041;-74
2023/06/29 07:35:25;;;;;;;14.35;5.88;;;;;;;19.70;100.00;101234.19;6273015;28;20045;-74
2023/06/29 07:38:27;;;;;;;11.88;5.70;;;;;;;19.73;100.00;101233.94;6277211;28;20049;-74
2023/06/29 07:41:28;;;;;;;13.75;5.40;;;;;;;19.73;100.00;101233.94;6275295;28;20049;-73
2023/06/29 07:44:31;;;;;;;8.65;5.10;;;;;;;19.75;100.00;101225.78;6258955;28;20041;-74
2023/06/29 07:47:32;;;;;;;13.82;6.40;;;;;;;19.80;100.00;101226.25;6269108;28;20052;-74
2023/06/29 07:50:34;;;;;;;10.98;4.60;;;;;;;19.85;100.00;101224.06;6277056;28;20041;-74
2023/06/29 07:53:35;;;;;;;9.55;4.55;;;;;;;19.92;100.00;101232.38;6276279;28;20048;-74
2023/06/29 07:56:37;;;;;;;12.88;5.40;;;;;;;20.00;100.00;101229.91;6276827;28;20049;-74
2023/06/29 07:59:40;;;;;;;10.13;5.75;;;;;;;20.07;100.00;101228.38;6276866;28;20349;-73
2023/06/29 08:02:42;;;;;;;11.35;5.53;;;;;;;20.14;100.00;101224.22;6275944;28;20052;-73
2023/06/29 08:05:44;;;;;;;9.40;4.43;;;;;;;20.18;100.00;101219.47;6276739;28;20049;-74
2023/06/29 08:08:45;;;;;;;13.15;4.97;;;;;;;20.21;100.00;101214.72;6276258;28;20060;-74
2023/06/29 08:11:46;;;;;;;8.98;5.25;;;;;;;20.25;100.00;101209.94;6276247;28;20048;-73
2023/06/29 08:14:49;;;;;;;10.32;5.13;;;;;;;20.31;100.00;101213.94;6263962;28;20069;-74
2023/06/29 08:17:50;;;;;;;8.30;4.65;;;;;;;20.35;100.00;101213.53;6254531;28;20045;-74
2023/06/29 08:20:52;;;;;;;15.32;5.10;;;;;;;20.39;100.00;101212.25;6251876;28;20048;-74
2023/06/29 08:23:53;;;;;;;9.80;4.60;;;;;;;20.44;100.00;101203.88;6259066;28;20461;-74
2023/06/29 08:26:59;;;;;;;8.60;4.72;;;;;;;20.55;100.00;101210.97;6276269;28;20041;-74
2023/06/29 08:30:02;;;;;;;10.32;5.28;;;;;;;20.69;100.00;101206.09;6276083;28;20048;-74
2023/06/29 08:33:04;;;;;;;9.63;5.28;;;;;;;20.73;100.00;101204.00;6275544;28;20056;-74
2023/06/29 08:36:05;;;;;;;10.68;4.68;;;;;;;20.80;100.00;101207.78;6274862;28;20450;-74
2023/06/29 08:39:08;;;;;;;13.48;5.72;;;;;;;20.83;100.00;101204.84;6251370;28;20060;-76
2023/06/29 08:42:10;;;;;;;11.77;5.68;;;;;;;20.92;98.46;101208.53;6250444;28;20050;-75
2023/06/29 08:45:12;;;;;;;9.18;5.47;;;;;;;21.01;100.00;101202.34;6250939;28;20442;-74
2023/06/29 08:48:14;;;;;;;13.57;4.82;;;;;;;21.12;100.00;101206.72;6251124;28;20049;-74
2023/06/29 08:51:19;;;;;;;15.20;5.35;;;;;;;21.18;100.00;101208.84;6246188;28;20052;-74
2023/06/29 08:54:20;;;;;;;12.55;5.13;;;;;;;21.25;100.00;101201.94;6250781;28;20361;-74
2023/06/29 08:57:22;;;;;;;13.95;7.40;;;;;;;21.28;98.19;101199.00;6250972;28;20346;-74
2023/06/29 09:00:26;;;;;;;13.75;6.32;;;;;;;21.34;94.68;101195.78;6246915;28;20335;-74
2023/06/29 09:03:29;;;;;;;12.23;5.78;;;;;;;21.36;94.46;101201.03;6258146;28;20053;-74
2023/06/29 09:06:32;;;;;;;12.00;5.07;;;;;;;21.40;97.84;101194.41;6250712;28;20057;-74
2023/06/29 09:09:34;;;;;;;19.45;7.18;;;;;;;21.43;93.76;101199.47;6250495;28;20174;-74
2023/06/29 09:12:36;;;;;;;12.45;6.05;;;;;;;21.45;93.82;101200.19;6250029;28;20048;-74
2023/06/29 09:15:40;;;;;;;13.43;5.68;;;;;;;21.47;92.67;101190.16;6250468;28;20433;-74
2023/06/29 09:18:42;;;;;;;11.60;6.00;;;;;;;21.51;93.13;101191.56;6250726;28;20434;-73
2023/06/29 09:21:45;;;;;;;14.05;6.05;;;;;;;21.52;93.50;101188.75;6249724;28;20082;-75
2023/06/29 09:24:47;;;;;;;20.08;7.07;;;;;;;21.60;89.95;101190.72;6257062;28;20052;-74
2023/06/29 09:27:48;;;;;;;13.63;6.93;;;;;;;21.67;90.64;101180.31;6274649;28;20045;-74
2023/06/29 09:30:51;;;;;;;14.27;5.95;;;;;;;21.69;91.55;101184.50;6274265;28;20049;-74
2023/06/29 09:33:52;;;;;;;12.73;5.63;;;;;;;21.77;89.04;101178.47;6275118;28;20061;-74
2023/06/29 09:36:54;;;;;;;11.32;6.28;;;;;;;21.91;86.69;101179.84;6274916;28;20452;-74
2023/06/29 09:39:58;;;;;;;13.00;5.30;;;;;;;21.92;85.98;101179.69;6275060;28;20040;-74
2023/06/29 09:43:03;;;;;;;13.85;5.45;;;;;;;21.96;86.70;101173.06;6265508;28;20127;-75
2023/06/29 09:46:09;;;;;;;10.52;5.07;;;;;;;22.00;87.35;101174.44;6250357;28;20049;-74
2023/06/29 09:49:11;;;;;;;12.20;5.22;;;;;;;21.99;88.63;101178.13;6250087;28;20535;-75
2023/06/29 09:52:12;;;;;;;13.77;4.53;;;;;;;21.99;87.81;101178.13;6249589;28;20049;-74
2023/06/29 09:55:14;;;;;;;7.63;4.85;;;;;;;21.97;85.78;101177.41;6250095;28;20056;-74
2023/06/29 09:58:18;;;;;;;9.30;4.57;;;;;;;22.01;87.18;101172.63;6250276;28;20053;-74
2023/06/29 10:01:20;;;;;;;9.57;4.22;;;;;;;22.06;85.31;101173.00;6249304;28;20049;-74
2023/06/29 10:04:22;;;;;;;13.05;4.70;;;;;;;22.04;86.51;101170.50;6249929;28;20044;-74
2023/06/29 10:07:23;;;;;;;6.80;3.67;;;;;;;22.10;86.66;101173.56;6249860;28;20175;-74
2023/06/29 10:10:29;;;;;;;9.07;4.47;;;;;;;22.16;83.96;101164.97;6249979;28;20450;-74
2023/06/29 10:13:34;;;;;;;11.88;5.20;;;;;;;22.23;82.51;101164.25;6249236;28;20041;-78
2023/06/29 10:16:41;;;;;;;9.70;4.53;;;;;;;22.26;86.31;101163.13;6249682;28;20050;-74
2023/06/29 10:19:45;;;;;;;9.93;4.82;;;;;;;22.24;86.98;101152.53;6249793;28;20049;-74
2023/06/29 10:22:48;;;;;;;14.02;4.70;;;;;;;22.35;83.72;101159.56;6239736;28;20048;-74
2023/06/29 10:25:51;;;;;;;6.57;3.75;;;;;;;22.37;83.35;101154.88;6249626;28;20049;-74
2023/06/29 10:28:53;;;;;;;16.02;4.93;;;;;;;22.43;80.37;101162.31;6249164;28;20128;-75
2023/06/29 10:31:59;;;;;;;12.95;5.38;;;;;;;22.45;82.18;101154.16;6257434;28;20045;-76
2023/06/29 10:35:05;;;;;;;12.63;5.88;;;;;;;22.49;80.74;101152.88;6274180;28;20353;-74
2023/06/29 10:38:10;;;;;;;11.50;4.53;;;;;;;22.43;79.82;101154.28;6259876;28;20096;-74
2023/06/29 10:41:25;;;;;;;13.63;4.88;;;;;;;22.52;83.74;101152.53;6254752;28;20064;-74
2023/06/29 10:44:34;;;;;;;7.70;4.13;;;;;;;22.56;82.47;101153.09;6266357;28;20407;-74
2023/06/29 10:47:39;;;;;;;12.25;4.57;;;;;;;22.58;84.50;101151.13;6253844;28;20045;-75
2023/06/29 10:50:42;;;;;;;8.30;4.45;;;;;;;22.61;86.16;101148.97;6253092;28;20350;-75
2023/06/29 10:53:47;;;;;;;9.27;4.60;;;;;;;22.66;81.47;101144.00;6255377;28;20500;-75
2023/06/29 10:56:57;;;;;;;12.75;5.07;;;;;;;22.71;83.63;101143.53;6277064;28;20353;-74
2023/06/29 10:59:59;;;;;;;12.35;4.85;;;;;;;22.73;80.33;101147.78;6245509;28;20242;-74
2023/06/29 11:03:02;;;;;;;9.73;4.35;;;;;;;22.81;79.30;101132.78;6252903;28;20049;-75
2023/06/29 11:06:06;;;;;;;10.90;4.97;;;;;;;22.83;79.15;101128.94;6253350;28;20065;-74
2023/06/29 11:09:11;;;;;;;11.43;4.93;;;;;;;22.84;79.01;101129.78;6260387;28;20464;-76
2023/06/29 11:12:13;;;;;;;11.43;4.30;;;;;;;22.86;79.03;101128.66;6252598;28;20046;-74
2023/06/29 11:15:16;;;;;;;9.40;4.55;;;;;;;22.92;78.69;101130.75;6253385;28;20049;-74
2023/06/29 11:18:20;;;;;;;10.30;5.07;;;;;;;22.90;77.12;101124.72;6272240;28;20064;-74
2023/06/29 11:21:22;;;;;;;9.23;4.43;;;;;;;22.97;77.68;101122.25;6276993;28;20060;-78
2023/06/29 11:24:23;;;;;;;7.00;3.88;;;;;;;23.01;78.53;101124.47;6277655;28;20490;-74
2023/06/29 11:27:24;;;;;;;10.88;4.25;;;;;;;23.08;80.00;101118.50;6277677;28;20041;-74
2023/06/29 11:30:26;;;;;;;9.32;4.50;;;;;;;23.17;81.22;101120.25;6277862;28;20048;-74
2023/06/29 11:33:29;;;;;;;6.18;3.70;;;;;;;23.21;79.55;101122.47;6276899;28;20041;-75
2023/06/29 11:36:32;;;;;;;12.02;3.85;;;;;;;23.23;82.33;101120.47;6277535;28;20056;-73
2023/06/29 11:39:34;;;;;;;9.10;4.20;;;;;;;23.25;81.12;101125.66;6277326;28;20124;-74
2023/06/29 11:42:36;;;;;;;10.13;4.28;;;;;;;23.27;77.95;101123.69;6276511;28;20354;-75
2023/06/29 11:45:38;;;;;;;9.23;4.03;;;;;;;23.26;79.88;101127.38;6277078;28;20045;-73
2023/06/29 11:48:40;;;;;;;8.80;3.92;;;;;;;23.20;78.54;101122.63;6277567;28;20139;-73
2023/06/29 11:51:42;;;;;;;10.10;4.80;;;;;;;23.12;76.07;101122.53;6276200;28;20041;-76
2023/06/29 11:54:44;;;;;;;9.80;4.45;;;;;;;23.13;77.61;101117.03;6277081;28;20037;-74
2023/06/29 11:57:50;;;;;;;13.85;4.32;;;;;;;23.11;78.87;101116.34;6277189;28;20045;-74
2023/06/29 12:00:56;;;;;;;11.45;4.30;;;;;;;23.08;79.70;101110.47;6276397;28;20072;-78
2023/06/29 12:03:59;;;;;;;8.65;4.53;;;;;;;23.13;80.12;101105.47;6277350;28;20184;-74
2023/06/29 12:07:00;;;;;;;8.15;3.83;;;;;;;23.13;78.50;101105.47;6253159;28;20053;-74
2023/06/29 12:10:02;;;;;;;6.82;4.25;;;;;;;23.15;79.45;101108.84;6252018;28;20053;-74
2023/06/29 12:13:04;;;;;;;8.38;3.97;;;;;;;23.16;80.41;101100.63;6251122;28;20064;-74
2023/06/29 12:16:06;;;;;;;10.95;4.53;;;;;;;23.14;80.09;101096.44;6251748;28;20442;-74
2023/06/29 12:19:13;;;;;;;15.20;5.25;;;;;;;23.14;77.87;101093.75;6241386;28;20085;-75
2023/06/29 12:22:15;;;;;;;9.55;4.50;;;;;;;23.11;77.88;101088.69;6236691;28;20045;-74
2023/06/29 12:25:18;;;;;;;7.18;4.10;;;;;;;23.09;80.77;101085.34;6240665;28;20049;-74
2023/06/29 12:28:21;;;;;;;11.73;5.47;;;;;;;22.95;78.26;101082.19;6235957;28;20052;-77
2023/06/29 12:31:25;;;;;;;8.68;4.72;;;;;;;22.93;78.91;101080.66;6248119;28;20053;-79
2023/06/29 12:34:31;;;;;;;7.88;4.32;;;;;;;22.93;80.90;101076.13;6269315;28;20479;-75
2023/06/29 12:37:32;;;;;;;11.95;5.97;;;;;;;22.92;77.87;101079.81;6274306;28;20049;-80
2023/06/29 12:40:34;;;;;;;9.43;4.35;;;;;;;22.90;80.03;101079.13;6274028;28;20056;-75
2023/06/29 12:43:35;;;;;;;9.10;4.45;;;;;;;22.86;80.55;101075.06;6272847;28;20049;-76
2023/06/29 12:46:36;;;;;;;11.25;4.80;;;;;;;22.89;81.48;101079.25;6274945;28;20148;-75
2023/06/29 12:49:39;;;;;;;8.60;4.07;;;;;;;22.90;83.22;101079.13;6275931;28;20274;-75
2023/06/29 12:52:40;;;;;;;9.40;4.60;;;;;;;22.88;81.33;101078.41;6274971;28;20445;-76
2023/06/29 12:55:42;;;;;;;11.05;4.93;;;;;;;22.90;82.76;101079.13;6275498;28;20345;-75
2023/06/29 12:58:43;;;;;;;12.73;4.72;;;;;;;22.88;84.61;101078.41;6275604;28;20051;-75
2023/06/29 13:01:44;;;;;;;12.82;5.00;;;;;;;22.87;83.31;101075.88;6267979;28;20045;-75
2023/06/29 13:04:47;;;;;;;12.43;4.50;;;;;;;22.85;82.32;101073.38;6250599;28;20052;-75
2023/06/29 13:07:49;;;;;;;7.95;4.90;;;;;;;22.90;84.23;101067.59;6250602;28;20053;-75
2023/06/29 13:10:51;;;;;;;10.10;4.43;;;;;;;22.94;85.69;101060.91;6257121;28;20060;-75
2023/06/29 13:13:53;;;;;;;9.13;4.57;;;;;;;22.96;83.41;101065.09;6275215;28;20043;-75
2023/06/29 13:16:55;;;;;;;13.73;5.57;;;;;;;23.03;82.76;101070.72;6275478;28;20472;-75
2023/06/29 13:19:58;;;;;;;8.68;5.05;;;;;;;23.03;81.57;101063.50;6275193;28;20053;-75
2023/06/29 13:23:00;;;;;;;11.38;5.68;;;;;;;23.07;83.32;101065.84;6274723;28;20064;-75
2023/06/29 13:26:01;;;;;;;12.25;5.57;;;;;;;23.04;81.18;101059.81;6274970;28;20052;-75
2023/06/29 13:29:03;;;;;;;14.07;5.75;;;;;;;23.03;81.65;101060.81;6275208;28;20053;-75
2023/06/29 13:32:05;;;;;;;11.23;5.13;;;;;;;23.08;81.69;101059.53;6274301;28;20357;-75
2023/06/29 13:35:09;;;;;;;12.23;5.93;;;;;;;23.13;82.45;101055.38;6274939;28;20055;-75
2023/06/29 13:38:10;;;;;;;13.98;5.45;;;;;;;23.15;82.96;101056.03;6275028;28;20057;-75
2023/06/29 13:41:11;;;;;;;11.38;6.25;;;;;;;23.14;79.84;101049.00;6274208;28;20071;-75
2023/06/29 13:44:13;;;;;;;14.45;6.00;;;;;;;23.13;80.87;101041.97;6274710;28;20437;-75
2023/06/29 13:47:18;;;;;;;11.90;5.80;;;;;;;23.17;82.38;101042.50;6275280;28;20130;-75
2023/06/29 13:50:21;;;;;;;17.83;7.40;;;;;;;23.16;83.02;101040.78;6274919;28;20364;-75
2023/06/29 13:53:24;;;;;;;14.88;7.13;;;;;;;23.17;81.84;101043.34;6274174;28;20357;-75
2023/06/29 13:56:25;;;;;;;13.50;7.40;;;;;;;23.22;79.16;101035.66;6274767;28;20115;-75